createdAt,value
2022-08-05T00:00:17.008Z,23.43
2022-08-05T00:02:50.902Z,23.41
2022-08-05T00:06:02.817Z,23.43
2022-08-05T00:08:20.003Z,23.37
2022-08-05T00:10:53.532Z,23.41
2022-08-05T00:13:19.998Z,23.30
2022-08-05T00:15:54.913Z,23.37
2022-08-05T00:18:22.961Z,23.33
2022-08-05T00:20:50.303Z,23.26
2022-08-05T00:23:17.227Z,23.18
2022-08-05T00:25:57.360Z,23.23
2022-08-05T00:28:29.599Z,23.24
2022-08-05T00:30:56.441Z,23.21
2022-08-05T00:34:54.422Z,23.18
2022-08-05T00:36:18.526Z,23.24
2022-08-05T00:39:02.309Z,23.21
2022-08-05T00:41:51.408Z,23.14
2022-08-05T00:44:18.958Z,23.18
2022-08-05T00:46:47.404Z,23.16
2022-08-05T00:49:20.895Z,23.13
2022-08-05T00:51:52.013Z,23.15
2022-08-05T00:54:18.852Z,23.00
2022-08-05T00:56:51.419Z,22.97
2022-08-05T00:59:18.428Z,22.88
2022-08-05T01:01:48.544Z,22.89
2022-08-05T01:04:16.163Z,22.78
2022-08-05T01:06:48.968Z,22.69
2022-08-05T01:09:19.836Z,22.73
2022-08-05T01:11:51.727Z,22.67
2022-08-05T01:14:28.070Z,22.65
2022-08-05T01:17:29.637Z,22.60
2022-08-05T01:20:25.058Z,22.48
2022-08-05T01:23:24.579Z,22.48
2022-08-05T01:26:21.452Z,22.52
2022-08-05T01:29:05.260Z,22.40
2022-08-05T01:31:48.101Z,22.22
2022-08-05T01:34:35.855Z,22.21
2022-08-05T01:37:07.938Z,22.16
2022-08-05T01:39:47.756Z,22.13
2022-08-05T01:42:17.375Z,22.10
2022-08-05T01:44:45.674Z,21.99
2022-08-05T01:47:21.264Z,22.04
2022-08-05T01:50:00.110Z,22.03
2022-08-05T01:52:28.893Z,22.03
2022-08-05T01:55:00.477Z,21.89
2022-08-05T01:58:13.736Z,21.68
2022-08-05T02:00:18.722Z,21.81
2022-08-05T02:02:59.916Z,21.74
2022-08-05T02:05:35.987Z,21.72
2022-08-05T02:08:04.196Z,21.73
2022-08-05T02:24:31.723Z,21.54
2022-08-05T02:27:10.262Z,21.48
2022-08-05T02:29:58.615Z,21.45
2022-08-05T02:32:30.606Z,21.43
2022-08-05T02:35:13.526Z,21.43
2022-08-05T02:37:47.594Z,21.40
2022-08-05T02:40:20.531Z,21.44
2022-08-05T02:42:52.779Z,21.40
2022-08-05T02:45:21.255Z,21.36
2022-08-05T02:48:06.970Z,21.31
2022-08-05T02:50:43.868Z,21.23
2022-08-05T02:53:18.803Z,21.24
2022-08-05T02:55:53.730Z,21.27
2022-08-05T02:58:23.091Z,21.24
2022-08-05T03:00:56.203Z,21.14
2022-08-05T03:03:23.549Z,21.12
2022-08-05T03:06:54.785Z,21.14
2022-08-05T03:08:42.627Z,21.11
2022-08-05T03:11:54.694Z,21.09
2022-08-05T03:14:09.859Z,21.06
2022-08-05T03:16:40.522Z,21.09
2022-08-05T03:19:17.218Z,21.04
2022-08-05T03:21:53.606Z,21.08
2022-08-05T03:24:29.968Z,21.12
2022-08-05T03:26:59.010Z,21.08
2022-08-05T03:29:59.605Z,20.99
2022-08-05T03:32:14.388Z,21.04
2022-08-05T03:34:42.360Z,21.03
2022-08-05T03:37:18.850Z,21.03
2022-08-05T03:39:58.975Z,21.08
2022-08-05T03:42:27.200Z,21.12
2022-08-05T03:44:55.679Z,21.10
2022-08-05T03:47:24.096Z,20.99
2022-08-05T03:49:51.515Z,21.04
2022-08-05T03:52:37.066Z,21.02
2022-08-05T03:56:03.680Z,21.00
2022-08-05T03:58:10.655Z,20.90
2022-08-05T04:00:41.965Z,20.86
2022-08-05T04:03:26.650Z,20.84
2022-08-05T04:05:57.906Z,20.90
2022-08-05T04:08:30.082Z,20.94
2022-08-05T04:11:04.056Z,20.83
2022-08-05T04:13:49.949Z,20.75
2022-08-05T04:16:25.254Z,20.68
2022-08-05T04:18:58.862Z,20.78
2022-08-05T04:22:10.119Z,20.81
2022-08-05T04:24:18.711Z,20.82
2022-08-05T04:26:46.690Z,20.89
2022-08-05T04:29:13.193Z,20.89
2022-08-05T04:31:40.890Z,20.96
2022-08-05T04:34:31.756Z,21.01
2022-08-05T04:36:54.427Z,21.04
2022-08-05T04:39:21.696Z,21.12
2022-08-05T04:41:48.581Z,20.93
2022-08-05T04:44:21.440Z,20.98
2022-08-05T04:46:56.835Z,21.01
2022-08-05T04:49:39.169Z,21.08
2022-08-05T04:52:11.764Z,21.09
2022-08-05T04:54:38.203Z,21.07
2022-08-05T04:57:04.757Z,21.03
2022-08-05T04:59:39.168Z,20.98
2022-08-05T05:02:37.345Z,20.92
2022-08-05T05:05:01.736Z,20.97
2022-08-05T05:07:29.687Z,21.02
2022-08-05T05:09:59.061Z,21.08
2022-08-05T05:12:29.076Z,21.23
2022-08-05T05:14:55.548Z,21.40
2022-08-05T05:17:24.620Z,21.42
2022-08-05T05:20:09.792Z,21.64
2022-08-05T05:22:40.771Z,21.86
2022-08-05T05:25:16.796Z,22.40
2022-08-05T05:27:53.677Z,22.42
2022-08-05T05:30:31.496Z,22.63
2022-08-05T05:33:09.339Z,22.89
2022-08-05T05:35:43.618Z,23.09
2022-08-05T05:38:13.353Z,23.24
2022-08-05T05:40:48.019Z,23.31
2022-08-05T05:43:27.544Z,23.41
2022-08-05T05:46:03.305Z,23.53
2022-08-05T05:48:31.597Z,23.72
2022-08-05T05:50:58.099Z,23.90
2022-08-05T05:53:24.532Z,24.01
2022-08-05T05:56:00.762Z,23.85
2022-08-05T05:58:31.514Z,24.11
2022-08-05T06:01:12.397Z,24.32
2022-08-05T06:04:00.924Z,24.34
2022-08-05T06:06:30.802Z,24.38
2022-08-05T06:08:59.264Z,24.35
2022-08-05T06:11:25.944Z,24.30
2022-08-05T06:13:54.148Z,24.27
2022-08-05T06:16:29.590Z,24.34
2022-08-05T06:19:00.850Z,24.45
2022-08-05T06:21:36.786Z,24.65
2022-08-05T06:24:11.298Z,24.91
2022-08-05T06:26:52.121Z,25.03
2022-08-05T06:29:45.330Z,25.33
2022-08-05T06:32:25.292Z,25.68
2022-08-05T06:34:56.776Z,25.94
2022-08-05T06:37:39.462Z,26.17
2022-08-05T06:40:18.079Z,26.42
2022-08-05T06:42:52.260Z,26.23
2022-08-05T06:45:44.105Z,26.12
2022-08-05T06:48:47.060Z,26.23
2022-08-05T06:50:56.996Z,26.30
2022-08-05T06:53:28.690Z,26.41
2022-08-05T06:55:59.885Z,26.70
2022-08-05T06:58:34.697Z,27.17
2022-08-05T07:01:05.059Z,27.32
2022-08-05T07:03:33.202Z,27.13
2022-08-05T07:06:05.786Z,26.94
2022-08-05T07:08:47.822Z,26.63
2022-08-05T07:11:22.130Z,26.42
2022-08-05T07:14:20.054Z,26.23
2022-08-05T07:18:08.176Z,26.10
2022-08-05T07:22:33.032Z,25.71
2022-08-05T07:25:21.697Z,25.82
2022-08-05T07:27:58.772Z,25.89
2022-08-05T07:30:33.638Z,25.97
2022-08-05T07:33:05.162Z,25.99
2022-08-05T07:36:03.869Z,26.02
2022-08-05T07:38:33.991Z,26.22
2022-08-05T07:41:35.045Z,27.17
2022-08-05T07:43:58.967Z,27.53
2022-08-05T07:46:30.638Z,27.54
2022-08-05T07:49:02.591Z,27.54
2022-08-05T07:51:36.296Z,27.89
2022-08-05T07:54:04.798Z,28.38
2022-08-05T07:57:02.739Z,28.77
2022-08-05T07:59:18.018Z,29.52
2022-08-05T08:01:51.787Z,29.53
2022-08-05T08:04:37.598Z,29.48
2022-08-05T08:07:07.415Z,30.03
2022-08-05T08:09:34.886Z,30.52
2022-08-05T08:12:07.760Z,30.88
2022-08-05T08:14:46.779Z,30.74
2022-08-05T08:17:16.270Z,30.86
2022-08-05T08:20:21.418Z,30.69
2022-08-05T08:22:32.307Z,31.26
2022-08-05T08:25:03.309Z,31.39
2022-08-05T08:27:37.988Z,31.75
2022-08-05T08:30:18.991Z,31.94
2022-08-05T08:32:56.843Z,32.45
2022-08-05T08:35:26.696Z,32.20
2022-08-05T08:37:56.348Z,32.63
2022-08-05T08:40:23.685Z,33.07
2022-08-05T08:42:52.993Z,33.06
2022-08-05T08:45:27.182Z,32.85
2022-08-05T08:48:06.885Z,33.58
2022-08-05T08:51:03.793Z,34.04
2022-08-05T08:53:37.231Z,34.41
2022-08-05T08:56:06.160Z,34.37
2022-08-05T08:58:43.476Z,34.03
2022-08-05T09:01:15.746Z,34.32
2022-08-05T09:03:54.421Z,34.53
2022-08-05T09:06:24.235Z,34.70
2022-08-05T09:08:55.900Z,35.19
2022-08-05T09:11:51.671Z,34.69
2022-08-05T09:14:58.582Z,34.52
2022-08-05T09:16:57.921Z,34.56
2022-08-05T09:19:36.204Z,35.07
2022-08-05T09:22:23.393Z,34.73
2022-08-05T09:25:01.049Z,34.33
2022-08-05T09:28:04.601Z,34.33
2022-08-05T09:30:23.490Z,33.45
2022-08-05T09:32:51.491Z,33.42
2022-08-05T09:35:26.747Z,34.18
2022-08-05T09:38:16.885Z,34.94
2022-08-05T09:40:52.678Z,35.15
2022-08-05T09:43:41.158Z,35.70
2022-08-05T09:46:28.070Z,35.79
2022-08-05T09:49:08.032Z,36.34
2022-08-05T09:51:42.235Z,36.62
2022-08-05T09:54:09.510Z,36.90
2022-08-05T09:56:38.500Z,36.44
2022-08-05T09:59:17.025Z,36.16
2022-08-05T10:01:46.482Z,35.93
2022-08-05T10:04:15.946Z,36.05
2022-08-05T10:06:59.086Z,35.96
2022-08-05T10:09:27.987Z,35.82
2022-08-05T10:11:55.008Z,35.39
2022-08-05T10:14:32.256Z,36.36
2022-08-05T10:17:39.816Z,36.86
2022-08-05T10:20:09.833Z,36.94
2022-08-05T10:22:38.076Z,36.99
2022-08-05T10:25:10.270Z,37.22
2022-08-05T10:28:13.662Z,37.04
2022-08-05T10:31:20.651Z,37.35
2022-08-05T10:33:15.200Z,37.24
2022-08-05T10:35:44.072Z,37.39
2022-08-05T10:38:13.272Z,37.31
2022-08-05T10:40:43.461Z,37.57
2022-08-05T10:43:35.953Z,37.38
2022-08-05T10:46:06.802Z,37.17
2022-08-05T10:48:57.070Z,37.54
2022-08-05T10:51:28.391Z,37.34
2022-08-05T10:54:05.808Z,37.59
2022-08-05T10:56:53.303Z,37.61
2022-08-05T11:00:03.770Z,37.71
2022-08-05T11:02:37.597Z,37.54
2022-08-05T11:05:08.599Z,37.20
2022-08-05T11:08:02.732Z,36.34
2022-08-05T11:10:37.066Z,35.05
2022-08-05T11:13:05.521Z,36.53
2022-08-05T11:15:59.089Z,37.14
2022-08-05T11:18:33.954Z,37.61
2022-08-05T11:21:02.789Z,36.69
2022-08-05T11:24:04.590Z,35.93
2022-08-05T11:26:40.863Z,35.75
2022-08-05T11:29:40.120Z,34.56
2022-08-05T11:32:27.210Z,33.91
2022-08-05T11:34:55.282Z,33.01
2022-08-05T11:38:30.466Z,33.07
2022-08-05T11:41:35.621Z,32.96
2022-08-05T11:44:06.252Z,32.99
2022-08-05T11:47:09.597Z,32.43
2022-08-05T11:49:33.761Z,33.04
2022-08-05T11:52:01.486Z,32.31
2022-08-05T11:54:37.995Z,32.13
2022-08-05T11:57:08.497Z,32.08
2022-08-05T11:59:50.983Z,31.95
2022-08-05T12:02:30.272Z,31.89
2022-08-05T12:05:00.325Z,31.86
2022-08-05T12:08:08.420Z,31.77
2022-08-05T12:10:22.806Z,32.20
2022-08-05T12:12:59.702Z,32.18
2022-08-05T12:15:37.833Z,31.98
2022-08-05T12:18:11.962Z,32.13
2022-08-05T12:20:39.343Z,31.89
2022-08-05T12:23:09.586Z,31.97
2022-08-05T12:25:51.961Z,32.16
2022-08-05T12:28:37.830Z,32.64
2022-08-05T12:31:05.367Z,33.03
2022-08-05T12:33:36.537Z,33.00
2022-08-05T12:36:07.915Z,32.82
2022-08-05T12:38:37.968Z,32.22
2022-08-05T12:41:13.318Z,31.98
2022-08-05T12:43:58.688Z,32.01
2022-08-05T12:46:29.758Z,31.89
2022-08-05T12:49:12.883Z,31.96
2022-08-05T12:52:12.602Z,32.22
2022-08-05T12:54:50.996Z,32.20
2022-08-05T12:57:19.535Z,32.29
2022-08-05T13:02:03.683Z,31.96
2022-08-05T13:02:39.837Z,32.38
2022-08-05T13:05:07.155Z,32.17
2022-08-05T13:07:59.287Z,31.70
2022-08-05T13:10:20.612Z,31.62
2022-08-05T13:12:51.256Z,31.38
2022-08-05T13:15:41.810Z,31.10
2022-08-05T13:18:20.222Z,31.24
2022-08-05T13:20:49.130Z,31.64
2022-08-05T13:23:18.289Z,32.00
2022-08-05T13:25:52.664Z,32.59
2022-08-05T13:28:26.892Z,32.73
2022-08-05T13:30:53.742Z,32.54
2022-08-05T13:34:21.306Z,31.92
2022-08-05T13:36:09.250Z,31.93
2022-08-05T13:38:38.514Z,31.76
2022-08-05T13:41:09.362Z,32.08
2022-08-05T13:43:45.446Z,32.08
2022-08-05T13:47:01.726Z,32.22
2022-08-05T13:49:12.628Z,31.99
2022-08-05T13:51:46.614Z,32.06
2022-08-05T13:54:15.106Z,31.98
2022-08-05T13:56:45.415Z,31.82
2022-08-05T13:59:24.032Z,31.60
2022-08-05T14:01:57.874Z,31.63
2022-08-05T14:04:53.934Z,31.98
2022-08-05T14:07:55.781Z,31.94
2022-08-05T14:22:08.983Z,32.36
2022-08-05T14:24:19.403Z,32.28
2022-08-05T14:27:02.010Z,32.38
2022-08-05T14:29:32.560Z,32.30
2022-08-05T14:32:12.470Z,32.39
2022-08-05T14:34:42.619Z,32.84
2022-08-05T14:37:09.128Z,32.99
2022-08-05T14:39:50.272Z,33.25
2022-08-05T14:42:29.346Z,33.23
2022-08-05T14:44:56.699Z,33.43
2022-08-05T14:48:02.613Z,33.52
2022-08-05T14:50:14.247Z,33.46
2022-08-05T14:52:52.943Z,33.78
2022-08-05T14:55:20.305Z,33.88
2022-08-05T14:57:54.803Z,33.98
2022-08-05T15:00:28.182Z,34.11
2022-08-05T15:02:56.471Z,34.33
2022-08-05T15:05:29.536Z,34.39
2022-08-05T15:08:06.214Z,34.59
2022-08-05T15:10:41.407Z,34.63
2022-08-05T15:13:10.082Z,34.57
2022-08-05T15:15:54.522Z,34.74
2022-08-05T15:18:23.308Z,34.53
2022-08-05T15:20:49.978Z,34.48
2022-08-05T15:23:17.625Z,34.52
2022-08-05T15:25:53.364Z,34.41
2022-08-05T15:28:27.221Z,34.43
2022-08-05T15:30:54.916Z,34.67
2022-08-05T15:34:04.045Z,35.26
2022-08-05T15:36:16.884Z,34.93
2022-08-05T15:38:50.698Z,34.43
2022-08-05T15:41:57.670Z,34.19
2022-08-05T15:44:24.196Z,34.26
2022-08-05T15:46:52.593Z,34.32
2022-08-05T15:49:27.330Z,34.22
2022-08-05T15:52:16.422Z,34.56
2022-08-05T15:54:43.623Z,34.79
2022-08-05T15:57:11.012Z,34.12
2022-08-05T15:59:39.480Z,33.98
2022-08-05T16:02:09.438Z,34.42
2022-08-05T16:04:41.078Z,33.97
2022-08-05T16:07:10.559Z,34.06
2022-08-05T16:09:37.462Z,34.09
2022-08-05T16:12:09.123Z,34.17
2022-08-05T16:14:35.992Z,33.97
2022-08-05T16:17:03.335Z,32.59
2022-08-05T16:20:05.607Z,32.79
2022-08-05T16:22:17.061Z,32.63
2022-08-05T16:24:52.202Z,31.90
2022-08-05T16:27:18.953Z,31.34
2022-08-05T16:29:50.821Z,30.64
2022-08-05T16:32:18.351Z,30.11
2022-08-05T16:34:54.943Z,29.83
2022-08-05T16:38:02.383Z,29.75
2022-08-05T16:40:20.212Z,29.63
2022-08-05T16:42:55.020Z,29.94
2022-08-05T16:46:04.916Z,29.75
2022-08-05T16:48:08.332Z,29.64
2022-08-05T16:50:37.763Z,29.51
2022-08-05T16:53:12.322Z,29.42
2022-08-05T16:55:48.797Z,29.32
2022-08-05T16:58:15.364Z,29.35
2022-08-05T17:00:47.031Z,29.21
2022-08-05T17:03:20.464Z,28.93
2022-08-05T17:05:54.008Z,28.69
2022-08-05T17:08:35.986Z,28.57
2022-08-05T17:11:16.872Z,28.27
2022-08-05T17:13:44.660Z,28.18
2022-08-05T17:16:32.883Z,28.16
2022-08-05T17:18:58.303Z,28.10
2022-08-05T17:21:24.725Z,27.95
2022-08-05T17:24:05.450Z,27.69
2022-08-05T17:26:39.019Z,27.58
2022-08-05T17:29:10.152Z,27.48
2022-08-05T17:31:56.976Z,27.39
2022-08-05T17:34:29.812Z,27.30
2022-08-05T17:36:59.252Z,27.11
2022-08-05T17:39:33.955Z,26.82
2022-08-05T17:42:17.418Z,26.52
2022-08-05T17:44:50.375Z,26.50
2022-08-05T17:47:22.837Z,26.60
2022-08-05T17:49:59.640Z,26.61
2022-08-05T17:52:27.707Z,26.52
2022-08-05T17:54:54.794Z,26.60
2022-08-05T17:57:21.919Z,26.55
2022-08-05T18:00:05.040Z,26.45
2022-08-05T18:02:34.079Z,26.41
2022-08-05T18:05:03.021Z,26.27
2022-08-05T18:07:41.528Z,26.26
2022-08-05T18:10:11.025Z,26.18
2022-08-05T18:12:38.685Z,26.22
2022-08-05T18:15:06.271Z,26.02
2022-08-05T18:18:00.988Z,26.00
2022-08-05T18:20:29.638Z,25.95
2022-08-05T18:23:00.699Z,25.79
2022-08-05T18:25:36.921Z,25.80
2022-08-05T18:28:06.365Z,25.69
2022-08-05T18:30:36.712Z,25.66
2022-08-05T18:33:07.329Z,25.68
2022-08-05T18:35:59.639Z,25.64
2022-08-05T18:38:26.327Z,25.61
2022-08-05T18:41:56.901Z,25.64
2022-08-05T18:43:43.101Z,25.59
2022-08-05T18:46:19.889Z,25.66
2022-08-05T18:48:52.009Z,25.56
2022-08-05T18:52:06.151Z,25.59
2022-08-05T18:54:25.538Z,25.54
2022-08-05T18:56:52.233Z,25.47
2022-08-05T18:59:43.238Z,25.45
2022-08-05T19:02:27.093Z,25.40
2022-08-05T19:05:02.354Z,25.39
2022-08-05T19:07:45.411Z,25.32
2022-08-05T19:10:14.369Z,25.29
2022-08-05T19:12:41.292Z,25.25
2022-08-05T19:15:10.597Z,25.19
2022-08-05T19:18:08.366Z,25.03
2022-08-05T19:20:41.725Z,24.85
2022-08-05T19:24:06.251Z,24.69
2022-08-05T19:26:02.634Z,24.74
2022-08-05T19:28:30.820Z,24.67
2022-08-05T19:30:57.533Z,24.52
2022-08-05T19:33:35.858Z,24.37
2022-08-05T19:36:06.988Z,24.38
2022-08-05T19:38:35.508Z,24.42
2022-08-05T19:41:02.275Z,24.44
2022-08-05T19:44:05.830Z,24.38
2022-08-05T19:46:30.221Z,24.35
2022-08-05T19:49:01.300Z,24.24
2022-08-05T19:52:05.490Z,24.12
2022-08-05T19:54:26.987Z,23.97
2022-08-05T19:56:57.943Z,23.87
2022-08-05T19:59:55.837Z,23.65
2022-08-05T20:02:12.566Z,23.58
2022-08-05T20:04:42.985Z,23.39
2022-08-05T20:07:13.442Z,23.10
2022-08-05T20:09:53.786Z,23.09
2022-08-05T20:12:22.495Z,23.08
2022-08-05T20:14:52.225Z,22.98
2022-08-05T20:17:19.946Z,22.74
2022-08-05T20:19:50.935Z,22.57
2022-08-05T20:22:24.709Z,22.51
2022-08-05T20:24:53.826Z,22.54
2022-08-05T20:27:21.014Z,22.63
2022-08-05T20:29:58.298Z,22.66
2022-08-05T20:32:26.144Z,22.39
2022-08-05T20:34:52.787Z,22.40
2022-08-05T20:38:04.937Z,22.31
2022-08-05T20:40:06.859Z,22.34
2022-08-05T20:42:33.379Z,22.30
2022-08-05T20:45:02.003Z,22.21
2022-08-05T20:47:31.978Z,22.29
2022-08-05T20:49:59.524Z,22.28
2022-08-05T20:52:28.350Z,22.28
2022-08-05T20:55:54.994Z,22.21
2022-08-05T20:57:44.334Z,21.99
2022-08-05T21:00:41.432Z,21.92
2022-08-05T21:03:04.604Z,21.79
2022-08-05T21:05:47.901Z,21.68
2022-08-05T21:08:26.708Z,21.76
2022-08-05T21:11:00.044Z,21.64
2022-08-05T21:13:48.353Z,21.74
2022-08-05T21:16:13.783Z,21.94
2022-08-05T21:18:43.010Z,21.87
2022-08-05T21:21:12.131Z,21.89
2022-08-05T21:23:39.004Z,21.91
2022-08-05T21:26:08.145Z,21.92
2022-08-05T21:28:39.982Z,21.73
2022-08-05T21:31:14.255Z,21.68
2022-08-05T21:33:43.124Z,21.71
2022-08-05T21:36:14.457Z,21.73
2022-08-05T21:38:54.720Z,21.75
2022-08-05T21:41:21.264Z,21.76
2022-08-05T21:44:01.672Z,21.79
2022-08-05T21:46:30.161Z,21.81
2022-08-05T21:48:57.134Z,21.83
2022-08-05T21:52:22.028Z,21.80
2022-08-05T21:54:12.963Z,21.77
2022-08-05T21:56:44.484Z,21.80
2022-08-05T21:59:24.433Z,21.70
2022-08-05T22:01:54.596Z,21.57
2022-08-05T22:04:25.511Z,21.62
2022-08-05T22:06:52.496Z,21.63
2022-08-05T22:09:21.119Z,21.60
2022-08-05T22:11:48.353Z,21.59
2022-08-05T22:14:33.536Z,21.67
2022-08-05T22:17:03.818Z,21.71
2022-08-05T22:20:00.424Z,21.71
2022-08-05T22:22:27.264Z,21.68
2022-08-05T22:25:31.231Z,21.62
2022-08-05T22:28:12.090Z,21.46
2022-08-05T22:30:55.542Z,21.46
2022-08-05T22:33:56.615Z,21.49
2022-08-05T22:36:11.476Z,21.42
2022-08-05T22:38:42.553Z,21.40
2022-08-05T22:41:10.188Z,21.41
2022-08-05T22:43:38.344Z,21.44
2022-08-05T22:46:13.052Z,21.46
2022-08-05T22:48:41.136Z,21.59
2022-08-05T22:51:08.415Z,21.43
2022-08-05T22:53:42.616Z,21.40
2022-08-05T22:56:16.534Z,21.35
2022-08-05T22:58:43.620Z,21.11
2022-08-05T23:01:10.436Z,21.11
2022-08-05T23:03:58.021Z,21.10
2022-08-05T23:06:26.202Z,21.10
2022-08-05T23:08:52.968Z,21.11
2022-08-05T23:11:19.463Z,20.94
2022-08-05T23:13:45.928Z,20.86
2022-08-05T23:16:26.119Z,20.83
2022-08-05T23:19:00.104Z,20.75
2022-08-05T23:21:42.476Z,20.57
2022-08-05T23:24:11.296Z,20.69
2022-08-05T23:26:38.158Z,20.38
2022-08-05T23:29:05.219Z,20.13
2022-08-05T23:31:31.824Z,20.22
2022-08-05T23:34:05.217Z,20.15
2022-08-05T23:36:38.713Z,20.21
2022-08-05T23:39:08.189Z,20.11
2022-08-05T23:41:37.322Z,20.00
2022-08-05T23:44:08.815Z,20.04
2022-08-05T23:46:37.408Z,20.19
2022-08-05T23:49:16.422Z,20.20
2022-08-05T23:52:03.070Z,20.30
2022-08-05T23:54:38.461Z,20.40
2022-08-05T23:57:06.788Z,20.38
